Time;durP1;ratioP1;P1;durP2;ratioP2;P2;SDS_P1;SDS_P2;PMS_P1;PMS_P2;Temp;Humidity;BMP_temperature;BMP_pressure;BME280_temperature;BME280_humidity;BME280_pressure;Samples;Min_cycle;Max_cycle;Signal;HPM_P1;HPM_P2
2023/04/13 00:00:09;;;;;;;5.13;3.05;;;7.40;99.90;;;;;;5071825;28;20059;-68
2023/04/13 00:02:38;;;;;;;4.90;2.67;;;7.40;99.90;;;;;;5069824;28;20475;-69
2023/04/13 00:05:09;;;;;;;6.80;2.30;;;7.40;99.90;;;;;;5072112;28;20032;-70
2023/04/13 00:07:38;;;;;;;6.95;2.67;;;7.40;99.90;;;;;;5069218;28;20078;-69
2023/04/13 00:10:09;;;;;;;11.50;4.22;;;7.40;99.90;;;;;;5071754;28;20032;-69
2023/04/13 00:12:39;;;;;;;3.72;2.20;;;7.40;99.90;;;;;;5069607;28;20453;-70
2023/04/13 00:15:06;;;;;;;5.10;2.00;;;7.50;99.90;;;;;;5071615;28;20029;-70
2023/04/13 00:17:32;;;;;;;7.10;2.80;;;7.50;99.90;;;;;;5070117;28;20456;-70
2023/04/13 00:19:58;;;;;;;8.40;2.67;;;7.50;99.90;;;;;;5071431;28;20060;-70
2023/04/13 00:22:24;;;;;;;5.25;3.25;;;7.60;99.90;;;;;;5071464;28;20033;-69
2023/04/13 00:24:54;;;;;;;7.65;3.05;;;7.60;99.90;;;;;;5071509;28;20154;-68
2023/04/13 00:27:29;;;;;;;6.55;3.35;;;7.60;99.90;;;;;;5071365;28;20102;-70
2023/04/13 00:29:55;;;;;;;7.57;3.95;;;7.70;99.90;;;;;;5069245;28;20020;-68
2023/04/13 00:32:25;;;;;;;6.75;2.47;;;7.70;99.90;;;;;;5071677;28;20498;-68
2023/04/13 00:34:51;;;;;;;7.28;3.10;;;7.70;99.90;;;;;;5068762;28;20017;-69
2023/04/13 00:37:18;;;;;;;7.47;3.42;;;7.70;99.90;;;;;;5071645;28;20044;-70
2023/04/13 00:39:48;;;;;;;9.63;2.90;;;7.70;99.90;;;;;;5071277;28;20045;-70
2023/04/13 00:42:16;;;;;;;16.60;3.17;;;7.70;99.90;;;;;;5069029;28;20064;-70
2023/04/13 00:44:43;;;;;;;6.82;2.70;;;7.70;99.90;;;;;;5071629;28;20028;-70
2023/04/13 00:47:08;;;;;;;6.38;2.55;;;7.70;99.90;;;;;;5071165;28;20025;-70
2023/04/13 00:49:34;;;;;;;8.00;2.85;;;7.70;99.90;;;;;;5071560;28;20029;-69
2023/04/13 00:52:01;;;;;;;5.38;2.40;;;7.70;99.90;;;;;;5072668;28;20107;-69
2023/04/13 00:54:28;;;;;;;5.30;2.55;;;7.60;99.90;;;;;;5071378;28;20155;-69
2023/04/13 00:56:56;;;;;;;5.43;2.53;;;7.60;99.90;;;;;;5071622;28;20381;-70
2023/04/13 00:59:22;;;;;;;4.18;1.50;;;7.50;99.90;;;;;;5072496;28;20036;-70
2023/04/13 01:01:55;;;;;;;2.63;1.10;;;7.50;99.90;;;;;;5072246;28;20036;-69
2023/04/13 01:04:24;;;;;;;5.85;1.60;;;7.40;99.90;;;;;;5072995;28;20036;-70
2023/04/13 01:07:18;;;;;;;4.57;1.50;;;7.30;99.90;;;;;;5071120;28;20025;-70
2023/04/13 01:09:52;;;;;;;5.03;1.05;;;7.30;99.90;;;;;;5073898;28;20093;-70
2023/04/13 01:12:39;;;;;;;5.07;1.35;;;7.20;99.90;;;;;;5076088;28;20107;-70
2023/04/13 01:15:11;;;;;;;6.68;1.70;;;7.20;99.90;;;;;;5076151;28;20416;-70
2023/04/13 01:17:38;;;;;;;4.63;1.00;;;7.10;99.90;;;;;;5076522;28;20082;-69
2023/04/13 01:20:15;;;;;;;9.07;1.30;;;7.10;99.90;;;;;;5075747;28;20047;-69
2023/04/13 01:23:08;;;;;;;8.10;1.42;;;7.10;99.90;;;;;;5075762;28;20043;-69
2023/04/13 01:25:49;;;;;;;8.90;1.73;;;7.20;99.90;;;;;;5073519;28;20485;-69
2023/04/13 01:28:16;;;;;;;6.05;1.00;;;7.20;99.90;;;;;;5076107;28;20056;-69
2023/04/13 01:30:43;;;;;;;6.72;1.80;;;7.20;99.90;;;;;;5075345;28;20504;-69
2023/04/13 01:33:10;;;;;;;5.97;1.02;;;7.20;99.90;;;;;;5075653;28;20034;-67
2023/04/13 01:35:37;;;;;;;9.88;1.90;;;7.30;99.90;;;;;;5075538;28;20400;-68
2023/04/13 01:38:03;;;;;;;11.23;1.70;;;7.30;99.90;;;;;;5075546;28;20461;-68
2023/04/13 01:40:30;;;;;;;8.32;1.73;;;7.30;99.90;;;;;;5075508;28;20062;-68
2023/04/13 01:42:56;;;;;;;10.52;2.00;;;7.30;99.90;;;;;;5075591;28;20052;-68
2023/04/13 01:45:29;;;;;;;7.78;2.00;;;7.30;99.90;;;;;;5075383;28;20540;-68
2023/04/13 01:48:00;;;;;;;9.57;1.70;;;7.30;99.90;;;;;;5075441;28;20029;-68
2023/04/13 01:50:28;;;;;;;4.13;1.42;;;7.30;99.90;;;;;;5075717;28;20055;-68
2023/04/13 01:52:59;;;;;;;9.63;1.70;;;7.30;99.90;;;;;;5075466;28;20086;-68
2023/04/13 01:55:25;;;;;;;10.73;1.77;;;7.30;99.90;;;;;;5075373;28;20032;-68
2023/04/13 01:57:53;;;;;;;8.55;1.58;;;7.20;99.90;;;;;;5074890;28;20025;-69
2023/04/13 02:00:19;;;;;;;5.25;1.17;;;7.20;99.90;;;;;;5075616;28;20048;-68
2023/04/13 02:02:45;;;;;;;9.85;2.17;;;7.10;99.90;;;;;;5075022;28;20085;-69
2023/04/13 02:05:11;;;;;;;6.85;1.50;;;7.10;99.90;;;;;;5075318;28;20035;-68
2023/04/13 02:07:39;;;;;;;8.85;1.75;;;7.10;99.90;;;;;;5074986;28;20040;-68
2023/04/13 02:10:05;;;;;;;9.50;1.25;;;7.00;99.90;;;;;;5075323;28;20350;-69
2023/04/13 02:12:32;;;;;;;6.78;1.35;;;6.90;99.90;;;;;;5074748;28;20021;-68
2023/04/13 02:14:59;;;;;;;10.18;1.48;;;6.90;99.90;;;;;;5075068;28;20020;-69
2023/04/13 02:17:28;;;;;;;10.57;1.55;;;6.90;99.90;;;;;;5075278;28;20032;-68
2023/04/13 02:19:55;;;;;;;8.77;1.33;;;6.80;99.90;;;;;;5074949;28;20032;-68
2023/04/13 02:22:21;;;;;;;5.63;1.15;;;6.80;99.90;;;;;;5075136;28;20033;-68
2023/04/13 02:24:47;;;;;;;5.45;1.40;;;6.70;99.90;;;;;;5074714;28;20039;-68
2023/04/13 02:27:13;;;;;;;10.38;1.95;;;6.70;99.90;;;;;;5074540;28;20090;-69
2023/04/13 02:29:38;;;;;;;7.72;1.33;;;6.70;99.90;;;;;;5074654;28;20036;-69
2023/04/13 02:32:04;;;;;;;10.60;1.90;;;6.70;99.90;;;;;;5074898;28;20059;-69
2023/04/13 02:34:29;;;;;;;6.53;1.52;;;6.70;99.90;;;;;;5074648;28;20031;-70
2023/04/13 02:36:55;;;;;;;13.35;1.48;;;6.70;99.90;;;;;;5074606;28;20024;-68
2023/04/13 02:39:20;;;;;;;9.43;1.83;;;6.70;99.90;;;;;;5074479;28;20032;-68
2023/04/13 02:41:47;;;;;;;10.43;1.58;;;6.70;99.90;;;;;;5074122;28;20021;-67
2023/04/13 02:44:13;;;;;;;5.97;1.45;;;6.80;99.90;;;;;;5074698;28;20032;-67
2023/04/13 02:46:39;;;;;;;12.93;1.70;;;6.80;99.90;;;;;;5074487;28;20025;-68
2023/04/13 02:49:04;;;;;;;12.35;1.55;;;6.90;99.90;;;;;;5074328;28;20025;-68
2023/04/13 02:51:31;;;;;;;8.57;2.50;;;6.90;99.90;;;;;;5074434;28;20103;-68
2023/04/13 02:53:56;;;;;;;9.10;1.50;;;6.90;99.90;;;;;;5074346;28;20063;-68
2023/04/13 02:56:24;;;;;;;11.77;1.92;;;6.80;99.90;;;;;;5074096;28;20055;-68
2023/04/13 02:58:50;;;;;;;14.63;2.10;;;6.80;99.90;;;;;;5074253;28;20472;-69
2023/04/13 03:01:16;;;;;;;11.23;2.10;;;6.90;99.90;;;;;;5074128;28;20083;-69
2023/04/13 03:03:41;;;;;;;16.92;2.20;;;6.90;99.90;;;;;;5072958;28;20419;-70
2023/04/13 03:06:07;;;;;;;8.48;1.85;;;6.90;99.90;;;;;;5074201;28;20033;-70
2023/04/13 03:08:33;;;;;;;8.05;2.00;;;7.00;99.90;;;;;;5073733;28;20147;-69
2023/04/13 03:11:00;;;;;;;11.50;1.55;;;7.00;99.90;;;;;;5073684;28;20448;-70
2023/04/13 03:13:26;;;;;;;11.85;2.03;;;7.00;99.90;;;;;;5073929;28;20103;-69
2023/04/13 03:15:51;;;;;;;9.45;1.65;;;7.00;99.90;;;;;;5074005;28;20111;-69
2023/04/13 03:18:17;;;;;;;11.23;1.73;;;7.00;99.90;;;;;;5073942;28;20032;-70
2023/04/13 03:20:43;;;;;;;7.18;1.50;;;7.10;99.90;;;;;;5073600;28;20080;-70
2023/04/13 03:23:09;;;;;;;8.40;2.13;;;7.10;99.90;;;;;;5073531;28;20107;-70
2023/04/13 03:25:35;;;;;;;9.27;2.00;;;7.20;99.90;;;;;;5073338;28;20556;-70
2023/04/13 03:28:00;;;;;;;12.73;1.88;;;7.20;99.90;;;;;;5073603;28;20080;-70
2023/04/13 03:30:26;;;;;;;6.20;1.85;;;7.30;99.90;;;;;;5073567;28;20021;-70
2023/04/13 03:32:51;;;;;;;11.52;1.73;;;7.40;99.90;;;;;;5071854;28;20031;-68
2023/04/13 03:35:17;;;;;;;9.82;2.10;;;7.40;99.90;;;;;;5053373;28;20469;-68
2023/04/13 03:37:43;;;;;;;10.43;2.00;;;7.50;99.90;;;;;;5053483;28;20518;-69
2023/04/13 03:40:10;;;;;;;9.57;1.70;;;7.50;99.90;;;;;;5053548;28;20041;-68
2023/04/13 03:42:36;;;;;;;10.00;2.47;;;7.60;99.90;;;;;;5053563;28;20055;-70
2023/04/13 03:45:02;;;;;;;9.65;2.15;;;7.60;99.90;;;;;;5053291;28;20044;-68
2023/04/13 03:47:28;;;;;;;7.07;2.00;;;7.70;99.90;;;;;;5053489;28;20032;-70
2023/04/13 03:49:54;;;;;;;14.50;2.33;;;7.70;99.90;;;;;;5053473;28;20047;-70
2023/04/13 03:52:19;;;;;;;6.22;1.92;;;7.70;99.90;;;;;;5053125;28;20025;-69
2023/04/13 03:54:45;;;;;;;7.25;2.13;;;7.80;99.90;;;;;;5053334;28;20087;-70
2023/04/13 03:57:11;;;;;;;12.25;2.70;;;7.80;99.90;;;;;;5053796;28;20037;-70
2023/04/13 03:59:36;;;;;;;8.82;1.70;;;7.80;99.90;;;;;;5063840;28;20055;-69
2023/04/13 04:02:02;;;;;;;6.85;1.73;;;7.90;99.90;;;;;;5073263;28;20444;-68
2023/04/13 04:04:28;;;;;;;13.40;2.22;;;7.90;99.90;;;;;;5073536;28;20028;-68
2023/04/13 04:06:53;;;;;;;8.65;1.90;;;7.90;99.90;;;;;;5073374;28;20024;-69
2023/04/13 04:09:19;;;;;;;11.50;2.20;;;7.90;99.90;;;;;;5073282;28;20078;-69
2023/04/13 04:11:45;;;;;;;9.48;1.95;;;7.90;99.90;;;;;;5073451;28;20025;-70
2023/04/13 04:14:10;;;;;;;10.63;2.05;;;7.90;99.90;;;;;;5073369;28;20046;-70
2023/04/13 04:16:36;;;;;;;11.70;2.22;;;7.90;99.90;;;;;;5073301;28;20452;-70
2023/04/13 04:19:01;;;;;;;10.13;2.05;;;7.90;99.90;;;;;;5073513;28;20029;-70
2023/04/13 04:21:34;;;;;;;9.30;2.03;;;7.90;99.90;;;;;;5073226;28;20040;-70
2023/04/13 04:24:01;;;;;;;12.23;2.00;;;8.00;99.90;;;;;;5073321;28;20028;-69
2023/04/13 04:26:28;;;;;;;8.57;2.05;;;8.00;99.90;;;;;;5073544;28;20086;-69
2023/04/13 04:29:00;;;;;;;7.75;1.80;;;8.00;99.90;;;;;;5073167;28;20488;-69
2023/04/13 04:31:30;;;;;;;13.63;1.70;;;8.00;99.90;;;;;;5073331;28;20059;-69
2023/04/13 04:33:56;;;;;;;7.03;3.40;;;8.00;99.90;;;;;;5062917;28;20037;-70
2023/04/13 04:36:23;;;;;;;9.00;1.60;;;8.00;99.90;;;;;;5053018;28;20392;-70
2023/04/13 04:38:50;;;;;;;11.00;1.75;;;8.00;99.90;;;;;;5060636;28;20024;-69
2023/04/13 04:41:19;;;;;;;6.00;1.58;;;8.10;99.90;;;;;;5071674;28;20037;-69
2023/04/13 04:43:45;;;;;;;7.82;1.70;;;8.00;99.90;;;;;;5072803;28;20020;-69
2023/04/13 04:46:14;;;;;;;5.32;1.67;;;8.00;99.90;;;;;;5076971;28;20463;-69
2023/04/13 04:48:40;;;;;;;7.85;1.33;;;7.90;99.90;;;;;;5076751;28;20025;-70
2023/04/13 04:51:07;;;;;;;9.48;1.70;;;7.80;99.90;;;;;;5075631;28;20086;-70
2023/04/13 04:53:33;;;;;;;11.32;2.28;;;7.80;99.90;;;;;;5076328;28;20365;-70
2023/04/13 04:55:59;;;;;;;5.88;1.75;;;7.90;99.90;;;;;;5076590;28;20025;-70
2023/04/13 04:58:24;;;;;;;13.38;1.92;;;7.90;99.90;;;;;;5076497;28;20021;-69
2023/04/13 05:00:51;;;;;;;9.73;1.67;;;7.90;99.90;;;;;;5077119;28;20040;-69
2023/04/13 05:03:18;;;;;;;7.93;2.30;;;7.90;99.90;;;;;;5076337;28;20111;-70
2023/04/13 05:05:43;;;;;;;6.97;1.63;;;8.00;99.90;;;;;;5076103;28;20048;-69
2023/04/13 05:08:10;;;;;;;5.82;2.70;;;7.90;99.90;;;;;;5076503;28;20063;-68
2023/04/13 05:10:45;;;;;;;10.48;1.90;;;8.00;99.90;;;;;;5076578;28;20032;-69
2023/04/13 05:13:11;;;;;;;9.57;1.55;;;8.00;99.90;;;;;;5076361;28;20029;-69
2023/04/13 05:15:37;;;;;;;6.57;1.45;;;8.10;99.90;;;;;;5075978;28;20523;-67
2023/04/13 05:18:04;;;;;;;5.40;1.70;;;8.20;99.90;;;;;;5075424;28;20025;-68
2023/04/13 05:20:33;;;;;;;10.52;1.70;;;8.20;99.90;;;;;;5076060;28;20051;-68
2023/04/13 05:22:59;;;;;;;8.13;1.88;;;8.20;99.90;;;;;;5076224;28;20074;-69
2023/04/13 05:25:25;;;;;;;15.52;3.20;;;8.20;99.90;;;;;;5076340;28;20054;-68
2023/04/13 05:27:51;;;;;;;13.25;2.38;;;8.10;99.90;;;;;;5076292;28;20055;-69
2023/04/13 05:30:17;;;;;;;8.48;2.30;;;8.20;99.90;;;;;;5075765;28;20028;-69
2023/04/13 05:32:43;;;;;;;6.03;1.58;;;8.30;99.90;;;;;;5076114;28;20035;-69
2023/04/13 05:35:09;;;;;;;7.32;1.73;;;8.20;99.90;;;;;;5076215;28;20034;-69
2023/04/13 05:37:35;;;;;;;10.77;2.63;;;8.30;99.90;;;;;;5075881;28;20036;-70
2023/04/13 05:40:10;;;;;;;15.38;3.33;;;8.30;99.90;;;;;;5075645;28;20490;-72
2023/04/13 05:42:36;;;;;;;5.90;1.90;;;8.30;99.90;;;;;;5075855;28;20086;-69
2023/04/13 05:45:08;;;;;;;14.27;5.40;;;8.30;99.90;;;;;;5075374;28;20021;-69
2023/04/13 05:47:34;;;;;;;;;;;8.30;99.90;;;;;;5076115;28;20040;-69
2023/04/13 05:49:59;;;;;;;5.95;2.20;;;8.30;99.90;;;;;;5075512;28;20257;-69
2023/04/13 05:52:25;;;;;;;9.20;2.63;;;8.30;99.90;;;;;;5075404;28;20039;-70
2023/04/13 05:54:51;;;;;;;13.30;2.97;;;8.30;99.90;;;;;;5074997;28;20107;-69
2023/04/13 05:57:20;;;;;;;17.15;4.40;;;8.40;99.90;;;;;;5074400;28;20060;-70
2023/04/13 05:59:46;;;;;;;17.33;5.65;;;8.50;99.90;;;;;;5075216;28;20051;-70
2023/04/13 06:02:11;;;;;;;13.80;3.85;;;8.50;99.90;;;;;;5075453;28;20457;-69
2023/04/13 06:04:37;;;;;;;18.48;4.45;;;8.50;99.90;;;;;;5075536;28;20383;-69
2023/04/13 06:07:03;;;;;;;16.67;5.45;;;8.50;99.90;;;;;;5075593;28;20094;-70
2023/04/13 06:09:28;;;;;;;15.27;4.13;;;8.50;99.90;;;;;;5075179;28;20082;-70
2023/04/13 06:11:54;;;;;;;13.93;2.78;;;8.60;99.90;;;;;;5075280;28;20524;-70
2023/04/13 06:14:21;;;;;;;11.68;3.35;;;8.70;99.90;;;;;;5075153;28;20402;-69
2023/04/13 06:16:46;;;;;;;10.45;2.15;;;8.80;99.90;;;;;;5075293;28;20032;-70
2023/04/13 06:19:12;;;;;;;8.75;2.72;;;8.80;99.90;;;;;;5075380;28;20033;-70
2023/04/13 06:21:38;;;;;;;12.30;2.42;;;8.80;99.90;;;;;;5074995;28;20040;-71
2023/04/13 06:24:03;;;;;;;14.20;2.50;;;8.90;99.90;;;;;;5075179;28;20086;-71
2023/04/13 06:26:32;;;;;;;11.88;2.58;;;8.90;99.90;;;;;;5074578;28;20035;-71
2023/04/13 06:28:57;;;;;;;8.98;2.25;;;8.90;99.90;;;;;;5075221;28;20047;-71
2023/04/13 06:31:26;;;;;;;6.60;2.22;;;8.90;99.90;;;;;;5075682;28;20020;-70
2023/04/13 06:33:52;;;;;;;8.68;2.50;;;8.90;99.90;;;;;;5075132;28;20078;-71
2023/04/13 06:36:18;;;;;;;8.35;2.35;;;8.80;99.90;;;;;;5074407;28;20031;-70
2023/04/13 06:38:44;;;;;;;5.10;1.40;;;8.80;99.90;;;;;;5068164;28;20435;-70
2023/04/13 06:41:09;;;;;;;16.77;3.05;;;8.70;99.90;;;;;;5072971;28;20055;-71
2023/04/13 06:43:36;;;;;;;14.18;2.05;;;8.80;99.90;;;;;;5074403;28;20028;-70
2023/04/13 06:46:03;;;;;;;13.27;2.58;;;8.80;99.90;;;;;;5074372;28;20021;-70
2023/04/13 06:48:29;;;;;;;11.43;2.65;;;8.90;99.90;;;;;;5074442;28;20033;-70
2023/04/13 06:50:56;;;;;;;15.05;3.00;;;8.90;99.90;;;;;;5074296;28;20104;-70
2023/04/13 06:53:22;;;;;;;14.93;4.38;;;8.90;99.90;;;;;;5074412;28;20032;-68
2023/04/13 06:55:47;;;;;;;15.82;3.13;;;9.00;99.90;;;;;;5073984;28;20522;-69
2023/04/13 06:58:13;;;;;;;24.75;5.22;;;9.20;99.90;;;;;;5074244;28;20067;-69
2023/04/13 07:00:38;;;;;;;13.65;3.35;;;9.40;99.90;;;;;;5074080;28;20063;-69
2023/04/13 07:03:04;;;;;;;17.20;3.25;;;9.50;99.90;;;;;;5074187;28;20025;-69
2023/04/13 07:05:30;;;;;;;14.73;3.10;;;9.60;99.90;;;;;;5073664;28;20081;-68
2023/04/13 07:07:56;;;;;;;9.95;2.88;;;9.60;99.90;;;;;;5073224;28;20040;-69
2023/04/13 07:10:22;;;;;;;12.50;3.50;;;9.60;99.90;;;;;;5074088;28;20037;-70
2023/04/13 07:12:47;;;;;;;16.73;4.18;;;9.70;99.90;;;;;;5073642;28;20025;-68
2023/04/13 07:15:14;;;;;;;11.80;3.58;;;9.80;99.90;;;;;;5073280;28;20461;-69
2023/04/13 07:17:39;;;;;;;10.68;2.40;;;9.80;99.90;;;;;;5073573;28;20469;-69
2023/04/13 07:20:06;;;;;;;8.55;2.53;;;9.80;99.90;;;;;;5073416;28;20039;-69
2023/04/13 07:22:35;;;;;;;16.90;5.57;;;9.90;99.90;;;;;;5073659;28;20029;-69
2023/04/13 07:25:01;;;;;;;18.15;5.68;;;9.80;99.90;;;;;;5073373;28;20058;-69
2023/04/13 07:27:26;;;;;;;20.55;5.30;;;9.80;99.90;;;;;;5073476;28;20044;-70
2023/04/13 07:29:55;;;;;;;18.00;5.03;;;9.90;99.90;;;;;;5073608;28;20033;-69
2023/04/13 07:32:21;;;;;;;18.13;4.05;;;10.10;99.90;;;;;;5073584;28;20042;-69
2023/04/13 07:34:47;;;;;;;16.23;5.15;;;10.40;99.90;;;;;;5073152;28;20024;-71
2023/04/13 07:37:12;;;;;;;20.58;6.30;;;10.50;99.90;;;;;;5073176;28;20033;-70
2023/04/13 07:39:38;;;;;;;15.40;3.58;;;10.40;99.90;;;;;;5072797;28;20024;-70
2023/04/13 07:42:04;;;;;;;17.63;4.13;;;10.10;99.90;;;;;;5073545;28;20038;-70
2023/04/13 07:44:30;;;;;;;15.50;2.95;;;10.00;99.90;;;;;;5073139;28;20119;-70
2023/04/13 07:46:55;;;;;;;17.17;3.88;;;10.10;99.90;;;;;;5071941;28;20039;-69
2023/04/13 07:49:22;;;;;;;14.25;2.92;;;10.40;99.90;;;;;;5071925;28;20029;-69
2023/04/13 07:51:51;;;;;;;17.33;3.30;;;10.70;99.90;;;;;;5073541;28;20049;-69
2023/04/13 07:54:17;;;;;;;17.23;4.40;;;10.80;99.90;;;;;;5073401;28;20033;-69
2023/04/13 07:56:43;;;;;;;20.23;2.85;;;10.80;99.90;;;;;;5072021;28;20029;-69
2023/04/13 07:59:08;;;;;;;21.77;4.43;;;10.70;99.90;;;;;;5073175;28;20036;-69
2023/04/13 08:01:34;;;;;;;22.92;3.63;;;10.60;99.90;;;;;;5069768;28;20514;-69
2023/04/13 08:03:59;;;;;;;14.95;3.15;;;10.60;99.90;;;;;;5072944;28;20039;-69
2023/04/13 08:06:26;;;;;;;17.52;2.88;;;10.70;99.90;;;;;;5072879;28;20375;-69
2023/04/13 08:08:52;;;;;;;18.65;3.85;;;10.70;99.90;;;;;;5069954;28;20729;-70
2023/04/13 08:11:18;;;;;;;21.15;4.43;;;10.60;99.90;;;;;;5069966;28;20047;-70
2023/04/13 08:13:43;;;;;;;24.83;6.78;;;10.50;99.90;;;;;;5062239;28;20457;-71
2023/04/13 08:16:10;;;;;;;23.45;5.75;;;10.40;99.90;;;;;;5055539;28;20118;-70
2023/04/13 08:18:36;;;;;;;21.40;3.75;;;10.40;99.90;;;;;;5070125;28;20028;-70
2023/04/13 08:21:12;;;;;;;20.40;4.95;;;10.30;99.90;;;;;;5072732;28;20028;-69
2023/04/13 08:23:40;;;;;;;20.38;3.63;;;10.40;99.90;;;;;;5073107;28;20033;-69
2023/04/13 08:26:06;;;;;;;20.92;4.45;;;10.40;99.90;;;;;;5073014;28;20028;-70
2023/04/13 08:28:32;;;;;;;22.40;5.70;;;10.50;99.90;;;;;;5072807;28;20085;-71
2023/04/13 08:30:58;;;;;;;18.98;4.40;;;10.50;99.90;;;;;;5072764;28;20070;-69
2023/04/13 08:33:23;;;;;;;22.27;5.28;;;10.60;99.90;;;;;;5072628;28;20020;-69
2023/04/13 08:35:49;;;;;;;19.63;3.63;;;10.70;99.90;;;;;;5072186;28;20031;-70
2023/04/13 08:38:15;;;;;;;17.50;3.78;;;10.70;99.90;;;;;;5072730;28;20028;-70
2023/04/13 08:40:40;;;;;;;17.08;3.38;;;10.70;99.90;;;;;;5072437;28;20076;-70
2023/04/13 08:43:06;;;;;;;16.48;4.57;;;10.70;99.90;;;;;;5072537;28;20023;-70
2023/04/13 08:45:33;;;;;;;14.55;4.22;;;10.70;99.90;;;;;;5072808;28;20460;-70
2023/04/13 08:48:00;;;;;;;21.95;4.80;;;10.70;99.90;;;;;;5072722;28;20032;-70
2023/04/13 08:50:27;;;;;;;15.70;3.60;;;10.70;99.90;;;;;;5067952;28;20021;-70
2023/04/13 08:52:53;;;;;;;23.60;4.85;;;10.60;99.90;;;;;;5072390;28;20027;-69
2023/04/13 08:55:19;;;;;;;18.08;4.22;;;10.70;99.90;;;;;;5072492;28;20108;-70
2023/04/13 08:57:49;;;;;;;16.52;3.35;;;10.80;99.90;;;;;;5072406;28;20115;-69
2023/04/13 09:00:20;;;;;;;15.45;3.00;;;11.00;99.90;;;;;;5067153;28;20048;-70
2023/04/13 09:02:47;;;;;;;15.87;3.93;;;11.00;99.90;;;;;;5072129;28;20020;-70
2023/04/13 09:05:19;;;;;;;17.95;3.45;;;11.20;99.90;;;;;;5072425;28;20217;-69
2023/04/13 09:07:52;;;;;;;22.33;4.00;;;11.40;99.90;;;;;;5072349;28;20029;-70
2023/04/13 09:10:19;;;;;;;18.75;4.05;;;11.90;99.90;;;;;;5072064;28;20501;-70
2023/04/13 09:12:45;;;;;;;16.20;3.65;;;12.50;99.90;;;;;;5071864;28;20024;-70
2023/04/13 09:15:15;;;;;;;10.82;2.55;;;12.80;99.90;;;;;;5070562;28;20074;-70
2023/04/13 09:17:42;;;;;;;20.13;3.63;;;13.20;99.90;;;;;;5070812;28;20104;-69
2023/04/13 09:20:20;;;;;;;14.38;2.97;;;13.40;99.90;;;;;;5071650;28;20032;-69
2023/04/13 09:22:46;;;;;;;19.33;5.90;;;13.60;99.90;;;;;;5071412;28;20040;-69
2023/04/13 09:25:22;;;;;;;19.45;4.70;;;13.80;99.90;;;;;;5071218;28;20028;-70
2023/04/13 09:27:50;;;;;;;18.75;4.82;;;14.00;99.90;;;;;;5069674;28;20067;-69
2023/04/13 09:30:20;;;;;;;19.23;4.00;;;14.10;99.90;;;;;;5072092;28;20035;-70
2023/04/13 09:32:46;;;;;;;19.20;4.15;;;13.90;99.90;;;;;;5075784;28;20122;-70
2023/04/13 09:35:12;;;;;;;20.02;5.03;;;14.00;99.90;;;;;;5075741;28;20025;-69
2023/04/13 09:37:40;;;;;;;10.73;3.60;;;14.20;99.90;;;;;;5075522;28;20029;-70
2023/04/13 09:40:15;;;;;;;14.48;4.43;;;14.40;99.90;;;;;;5074400;28;20036;-69
2023/04/13 09:42:59;;;;;;;12.88;3.38;;;15.00;99.90;;;;;;5075325;28;20431;-70
2023/04/13 09:45:36;;;;;;;18.77;4.93;;;15.50;99.90;;;;;;5074894;28;20373;-69
2023/04/13 09:48:03;;;;;;;30.92;9.88;;;15.60;99.90;;;;;;5075710;28;20107;-70
2023/04/13 09:50:31;;;;;;;22.95;5.22;;;15.50;99.90;;;;;;5075208;28;20029;-69
2023/04/13 09:52:59;;;;;;;15.90;4.63;;;15.20;99.90;;;;;;5074771;28;20024;-69
2023/04/13 09:55:26;;;;;;;15.57;3.42;;;15.10;99.90;;;;;;5073735;28;20020;-69
2023/04/13 09:57:52;;;;;;;19.67;4.15;;;15.10;99.90;;;;;;5075185;28;20052;-70
2023/04/13 10:00:20;;;;;;;17.17;5.00;;;15.30;99.90;;;;;;5075457;28;20071;-70
2023/04/13 10:02:51;;;;;;;17.15;3.22;;;16.30;99.90;;;;;;5073908;28;20435;-69
2023/04/13 10:05:21;;;;;;;14.65;3.17;;;17.30;99.60;;;;;;5074581;28;20036;-70
2023/04/13 10:07:47;;;;;;;9.02;2.63;;;17.90;98.60;;;;;;5074759;28;20090;-69
2023/04/13 10:10:13;;;;;;;15.57;3.03;;;18.50;96.80;;;;;;5075224;28;20029;-70
2023/04/13 10:12:43;;;;;;;12.32;3.08;;;19.00;96.40;;;;;;5074288;28;20025;-70
2023/04/13 10:15:08;;;;;;;13.63;2.40;;;18.50;95.70;;;;;;5074703;28;20107;-69
2023/04/13 10:17:42;;;;;;;18.20;3.70;;;17.70;97.10;;;;;;5074313;28;20100;-69
2023/04/13 10:20:12;;;;;;;12.38;2.47;;;17.30;97.90;;;;;;5074559;28;20051;-69
2023/04/13 10:22:41;;;;;;;13.25;3.30;;;17.00;97.70;;;;;;5058135;28;20468;-70
2023/04/13 10:25:13;;;;;;;16.70;2.55;;;16.90;97.90;;;;;;5074932;28;20029;-70
2023/04/13 10:27:39;;;;;;;;;;;16.90;97.70;;;;;;5074709;28;20135;-69
2023/04/13 10:30:15;;;;;;;11.18;2.72;;;16.90;97.00;;;;;;5074571;28;19904;-70
2023/04/13 10:32:41;;;;;;;13.57;3.05;;;17.00;96.70;;;;;;5074164;28;20024;-69
2023/04/13 10:35:11;;;;;;;13.93;3.15;;;17.00;97.00;;;;;;5074477;28;20046;-69
2023/04/13 10:37:39;;;;;;;11.98;2.17;;;16.90;97.90;;;;;;5074458;28;20508;-67
2023/04/13 10:40:07;;;;;;;14.25;3.00;;;17.20;97.90;;;;;;5074555;28;20036;-71
2023/04/13 10:42:43;;;;;;;8.85;1.98;;;17.60;97.20;;;;;;5073222;28;20036;-70
2023/04/13 10:45:17;;;;;;;12.95;2.42;;;18.00;96.40;;;;;;5074437;28;20027;-70
2023/04/13 10:47:43;;;;;;;18.75;3.38;;;18.00;96.40;;;;;;5072789;28;20025;-69
2023/04/13 10:50:21;;;;;;;13.20;2.60;;;17.80;96.40;;;;;;5063605;28;20112;-70
2023/04/13 10:53:07;;;;;;;10.88;2.30;;;17.60;96.30;;;;;;5073950;28;20024;-71
2023/04/13 10:55:34;;;;;;;14.30;2.60;;;17.50;96.70;;;;;;5073853;28;20036;-69
2023/04/13 10:58:01;;;;;;;14.15;3.30;;;17.80;96.30;;;;;;5074305;28;20021;-70
2023/04/13 11:00:29;;;;;;;14.13;2.90;;;18.00;96.60;;;;;;5073964;28;20406;-68
2023/04/13 11:02:58;;;;;;;11.00;2.42;;;18.60;96.00;;;;;;5057662;28;20425;-69
2023/04/13 11:05:26;;;;;;;13.00;3.42;;;18.80;95.20;;;;;;5072935;28;20029;-68
2023/04/13 11:07:52;;;;;;;10.30;2.40;;;19.00;95.00;;;;;;5073681;28;20513;-69
2023/04/13 11:10:27;;;;;;;11.50;2.10;;;19.00;94.80;;;;;;5074144;28;20055;-70
2023/04/13 11:12:55;;;;;;;12.05;2.22;;;18.80;95.00;;;;;;5057328;28;20074;-70
2023/04/13 11:15:28;;;;;;;11.98;2.60;;;18.50;95.20;;;;;;5073732;28;20028;-69
2023/04/13 11:17:56;;;;;;;11.98;2.65;;;18.30;94.60;;;;;;5073718;28;20027;-69
2023/04/13 11:20:35;;;;;;;16.00;2.58;;;18.30;94.80;;;;;;5073048;28;20072;-69
2023/04/13 11:23:04;;;;;;;12.77;2.67;;;18.20;94.80;;;;;;5058429;28;20028;-70
2023/04/13 11:25:32;;;;;;;12.65;1.80;;;18.20;95.10;;;;;;5073646;28;20025;-70
2023/04/13 11:28:02;;;;;;;12.35;2.33;;;18.50;94.50;;;;;;5072629;28;20048;-70
2023/04/13 11:30:29;;;;;;;12.95;2.45;;;19.00;94.30;;;;;;5072490;28;20076;-70
2023/04/13 11:32:58;;;;;;;11.25;2.42;;;18.80;94.50;;;;;;5071939;28;20024;-70
2023/04/13 11:35:24;;;;;;;19.50;2.72;;;18.90;94.60;;;;;;5072519;28;20603;-70
2023/04/13 11:37:53;;;;;;;14.80;3.08;;;19.20;93.90;;;;;;5073447;28;20020;-69
2023/04/13 11:40:26;;;;;;;12.13;3.08;;;18.90;93.80;;;;;;5068599;28;20040;-69
2023/04/13 11:42:54;;;;;;;12.27;2.85;;;18.90;93.60;;;;;;5070598;28;20081;-70
2023/04/13 11:45:24;;;;;;;14.90;2.63;;;19.40;93.60;;;;;;5073365;28;20031;-69
2023/04/13 11:47:50;;;;;;;10.30;2.80;;;19.50;92.50;;;;;;5072549;28;20107;-69
2023/04/13 11:50:18;;;;;;;12.70;3.55;;;19.90;92.70;;;;;;5073439;28;20035;-70
2023/04/13 11:52:45;;;;;;;12.48;3.05;;;20.40;91.40;;;;;;5073040;28;20058;-70
2023/04/13 11:55:12;;;;;;;9.75;2.47;;;20.60;91.30;;;;;;5073091;28;20484;-69
2023/04/13 11:57:40;;;;;;;12.13;2.00;;;20.90;90.50;;;;;;5072835;28;20090;-70
2023/04/13 12:00:17;;;;;;;10.02;2.38;;;20.80;90.50;;;;;;5072893;28;20519;-70
2023/04/13 12:02:44;;;;;;;12.77;2.92;;;20.40;90.60;;;;;;5072917;28;20039;-70
2023/04/13 12:05:23;;;;;;;10.98;2.60;;;20.50;90.80;;;;;;5072852;28;20091;-71
2023/04/13 12:07:52;;;;;;;10.50;2.40;;;21.00;90.80;;;;;;5073003;28;20032;-70
2023/04/13 12:10:29;;;;;;;11.90;2.25;;;20.70;90.90;;;;;;5072750;28;20472;-70
2023/04/13 12:12:59;;;;;;;17.40;2.63;;;20.20;91.70;;;;;;5056634;28;20025;-71
2023/04/13 12:15:27;;;;;;;14.65;2.70;;;19.40;92.20;;;;;;5072320;28;20051;-70
2023/04/13 12:17:54;;;;;;;10.82;2.33;;;18.60;93.10;;;;;;5072368;28;20029;-70
2023/04/13 12:20:20;;;;;;;15.55;2.92;;;18.10;93.40;;;;;;5072806;28;20072;-70
2023/04/13 12:22:45;;;;;;;17.52;2.92;;;17.60;94.00;;;;;;5072065;28;20106;-69
2023/04/13 12:25:18;;;;;;;12.68;2.90;;;17.00;94.30;;;;;;5072755;28;20360;-70
2023/04/13 12:27:44;;;;;;;9.98;1.75;;;16.70;95.10;;;;;;5072824;28;20392;-70
2023/04/13 12:30:15;;;;;;;12.85;2.20;;;16.20;95.20;;;;;;5072666;28;20040;-70
2023/04/13 12:32:45;;;;;;;11.82;2.20;;;16.00;95.80;;;;;;5070512;28;20032;-70
2023/04/13 12:35:12;;;;;;;13.63;2.05;;;15.80;96.00;;;;;;5071155;28;20032;-70
2023/04/13 12:37:43;;;;;;;11.82;1.95;;;15.80;96.00;;;;;;5071176;28;20041;-70
2023/04/13 12:40:11;;;;;;;10.43;1.75;;;15.50;96.60;;;;;;5071473;28;20033;-70
2023/04/13 12:42:39;;;;;;;10.25;2.05;;;15.20;97.10;;;;;;5072753;28;20029;-70
2023/04/13 12:45:05;;;;;;;8.68;1.95;;;15.00;97.80;;;;;;5072855;28;20366;-70
2023/04/13 12:47:31;;;;;;;12.57;2.50;;;14.80;98.10;;;;;;5071912;28;20071;-70
2023/04/13 12:49:56;;;;;;;16.83;1.80;;;14.70;98.40;;;;;;5071626;28;20048;-70